sensor_id;sensor_type;location;lat;lon;timestamp;temperature;humidity
51476;DHT22;37554;50.362;7.568;2023-04-30T00:00:12;18.40;54.80
51476;DHT22;37554;50.362;7.568;2023-04-30T00:02:37;18.40;54.80
51476;DHT22;37554;50.362;7.568;2023-04-30T00:05:03;18.40;54.70
51476;DHT22;37554;50.362;7.568;2023-04-30T00:07:29;18.40;54.80
51476;DHT22;37554;50.362;7.568;2023-04-30T00:09:56;18.40;54.90
51476;DHT22;37554;50.362;7.568;2023-04-30T00:12:22;18.30;54.90
51476;DHT22;37554;50.362;7.568;2023-04-30T00:14:48;18.40;54.90
51476;DHT22;37554;50.362;7.568;2023-04-30T00:17:13;18.30;54.90
51476;DHT22;37554;50.362;7.568;2023-04-30T00:19:40;18.30;54.90
51476;DHT22;37554;50.362;7.568;2023-04-30T00:22:07;18.30;54.90
51476;DHT22;37554;50.362;7.568;2023-04-30T00:24:33;18.30;54.90
51476;DHT22;37554;50.362;7.568;2023-04-30T00:26:58;18.20;54.90
51476;DHT22;37554;50.362;7.568;2023-04-30T00:29:24;18.30;54.90
51476;DHT22;37554;50.362;7.568;2023-04-30T00:31:50;18.20;54.90
51476;DHT22;37554;50.362;7.568;2023-04-30T00:34:15;18.20;55.10
51476;DHT22;37554;50.362;7.568;2023-04-30T00:36:41;18.20;54.90
51476;DHT22;37554;50.362;7.568;2023-04-30T00:39:06;18.20;55.00
51476;DHT22;37554;50.362;7.568;2023-04-30T00:41:34;18.20;55.00
51476;DHT22;37554;50.362;7.568;2023-04-30T00:43:59;18.20;55.00
51476;DHT22;37554;50.362;7.568;2023-04-30T00:46:27;18.20;55.00
51476;DHT22;37554;50.362;7.568;2023-04-30T00:48:52;18.20;55.10
51476;DHT22;37554;50.362;7.568;2023-04-30T00:51:18;18.20;55.10
51476;DHT22;37554;50.362;7.568;2023-04-30T00:53:44;18.20;55.10
51476;DHT22;37554;50.362;7.568;2023-04-30T00:56:12;18.20;55.10
51476;DHT22;37554;50.362;7.568;2023-04-30T00:58:38;18.20;55.10
51476;DHT22;37554;50.362;7.568;2023-04-30T01:01:04;18.20;55.10
51476;DHT22;37554;50.362;7.568;2023-04-30T01:03:31;18.20;55.10
51476;DHT22;37554;50.362;7.568;2023-04-30T01:05:57;18.10;55.10
51476;DHT22;37554;50.362;7.568;2023-04-30T01:08:23;18.10;55.10
51476;DHT22;37554;50.362;7.568;2023-04-30T01:13:39;18.10;55.30
51476;DHT22;37554;50.362;7.568;2023-04-30T01:16:20;18.10;55.20
51476;DHT22;37554;50.362;7.568;2023-04-30T01:18:53;18.10;55.10
51476;DHT22;37554;50.362;7.568;2023-04-30T01:21:21;18.10;55.20
51476;DHT22;37554;50.362;7.568;2023-04-30T01:29:21;18.10;55.50
51476;DHT22;37554;50.362;7.568;2023-04-30T01:31:48;18.10;55.30
51476;DHT22;37554;50.362;7.568;2023-04-30T01:34:14;18.00;55.30
51476;DHT22;37554;50.362;7.568;2023-04-30T01:40:07;18.00;55.70
51476;DHT22;37554;50.362;7.568;2023-04-30T01:42:44;18.00;55.60
51476;DHT22;37554;50.362;7.568;2023-04-30T01:45:27;18.00;55.50
51476;DHT22;37554;50.362;7.568;2023-04-30T01:48:07;18.00;55.50
51476;DHT22;37554;50.362;7.568;2023-04-30T01:50:43;18.00;55.60
51476;DHT22;37554;50.362;7.568;2023-04-30T01:53:19;17.90;55.50
51476;DHT22;37554;50.362;7.568;2023-04-30T01:55:57;17.90;55.50
51476;DHT22;37554;50.362;7.568;2023-04-30T01:58:24;17.90;55.70
51476;DHT22;37554;50.362;7.568;2023-04-30T02:00:50;17.90;55.60
51476;DHT22;37554;50.362;7.568;2023-04-30T02:03:16;17.90;55.60
51476;DHT22;37554;50.362;7.568;2023-04-30T02:05:42;17.90;55.60
51476;DHT22;37554;50.362;7.568;2023-04-30T02:08:08;17.90;55.60
51476;DHT22;37554;50.362;7.568;2023-04-30T02:10:33;17.90;55.60
51476;DHT22;37554;50.362;7.568;2023-04-30T02:12:59;17.90;55.70
51476;DHT22;37554;50.362;7.568;2023-04-30T02:15:24;17.90;55.70
51476;DHT22;37554;50.362;7.568;2023-04-30T02:17:50;17.90;55.60
51476;DHT22;37554;50.362;7.568;2023-04-30T02:20:16;17.90;55.60
51476;DHT22;37554;50.362;7.568;2023-04-30T02:22:42;17.90;55.60
51476;DHT22;37554;50.362;7.568;2023-04-30T02:25:08;17.90;55.70
51476;DHT22;37554;50.362;7.568;2023-04-30T02:27:33;17.90;55.70
51476;DHT22;37554;50.362;7.568;2023-04-30T02:29:59;17.90;55.80
51476;DHT22;37554;50.362;7.568;2023-04-30T02:32:25;17.80;55.70
51476;DHT22;37554;50.362;7.568;2023-04-30T02:34:51;17.80;55.80
51476;DHT22;37554;50.362;7.568;2023-04-30T02:37:16;17.80;55.80
51476;DHT22;37554;50.362;7.568;2023-04-30T02:39:42;17.80;55.80
51476;DHT22;37554;50.362;7.568;2023-04-30T02:42:08;17.80;55.80
51476;DHT22;37554;50.362;7.568;2023-04-30T02:44:34;17.80;55.80
51476;DHT22;37554;50.362;7.568;2023-04-30T02:47:00;17.80;55.90
51476;DHT22;37554;50.362;7.568;2023-04-30T02:49:25;17.80;55.80
51476;DHT22;37554;50.362;7.568;2023-04-30T02:51:52;17.80;55.80
51476;DHT22;37554;50.362;7.568;2023-04-30T02:54:17;17.80;55.80
51476;DHT22;37554;50.362;7.568;2023-04-30T02:56:44;17.80;55.80
51476;DHT22;37554;50.362;7.568;2023-04-30T02:59:10;17.70;56.50
51476;DHT22;37554;50.362;7.568;2023-04-30T03:01:36;17.70;55.80
51476;DHT22;37554;50.362;7.568;2023-04-30T03:04:02;17.70;55.90
51476;DHT22;37554;50.362;7.568;2023-04-30T03:06:30;17.70;55.90
51476;DHT22;37554;50.362;7.568;2023-04-30T03:08:56;17.70;55.90
51476;DHT22;37554;50.362;7.568;2023-04-30T03:11:22;17.70;55.90
51476;DHT22;37554;50.362;7.568;2023-04-30T03:13:48;17.70;55.80
51476;DHT22;37554;50.362;7.568;2023-04-30T03:16:20;17.70;55.80
51476;DHT22;37554;50.362;7.568;2023-04-30T03:18:46;17.70;55.90
51476;DHT22;37554;50.362;7.568;2023-04-30T03:21:12;17.70;55.80
51476;DHT22;37554;50.362;7.568;2023-04-30T03:23:38;17.60;55.80
51476;DHT22;37554;50.362;7.568;2023-04-30T03:26:04;17.60;55.70
51476;DHT22;37554;50.362;7.568;2023-04-30T03:28:29;17.60;55.70
51476;DHT22;37554;50.362;7.568;2023-04-30T03:30:55;17.60;55.70
51476;DHT22;37554;50.362;7.568;2023-04-30T03:33:21;17.60;55.70
51476;DHT22;37554;50.362;7.568;2023-04-30T03:35:46;17.60;55.70
51476;DHT22;37554;50.362;7.568;2023-04-30T03:38:14;17.60;55.70
51476;DHT22;37554;50.362;7.568;2023-04-30T03:40:39;17.50;55.70
51476;DHT22;37554;50.362;7.568;2023-04-30T03:43:05;17.50;55.70
51476;DHT22;37554;50.362;7.568;2023-04-30T03:45:31;17.50;55.70
51476;DHT22;37554;50.362;7.568;2023-04-30T03:47:56;17.50;55.70
51476;DHT22;37554;50.362;7.568;2023-04-30T03:50:22;17.50;55.60
51476;DHT22;37554;50.362;7.568;2023-04-30T03:52:48;17.50;55.70
51476;DHT22;37554;50.362;7.568;2023-04-30T03:55:13;17.40;55.60
51476;DHT22;37554;50.362;7.568;2023-04-30T03:57:39;17.40;55.60
51476;DHT22;37554;50.362;7.568;2023-04-30T04:00:06;17.40;55.50
51476;DHT22;37554;50.362;7.568;2023-04-30T04:02:35;17.40;55.50
51476;DHT22;37554;50.362;7.568;2023-04-30T04:05:02;17.40;55.40
51476;DHT22;37554;50.362;7.568;2023-04-30T04:07:28;17.40;55.40
51476;DHT22;37554;50.362;7.568;2023-04-30T04:09:53;17.40;55.50
51476;DHT22;37554;50.362;7.568;2023-04-30T04:12:19;17.40;55.50
51476;DHT22;37554;50.362;7.568;2023-04-30T04:14:44;17.30;55.50
51476;DHT22;37554;50.362;7.568;2023-04-30T04:17:10;17.30;55.40
51476;DHT22;37554;50.362;7.568;2023-04-30T04:19:36;17.30;55.50
51476;DHT22;37554;50.362;7.568;2023-04-30T04:22:02;17.20;55.50
51476;DHT22;37554;50.362;7.568;2023-04-30T04:24:27;17.20;55.50
51476;DHT22;37554;50.362;7.568;2023-04-30T04:26:53;17.20;55.50
51476;DHT22;37554;50.362;7.568;2023-04-30T04:29:20;17.20;55.50
51476;DHT22;37554;50.362;7.568;2023-04-30T04:31:46;17.20;55.50
51476;DHT22;37554;50.362;7.568;2023-04-30T04:34:13;17.20;55.50
51476;DHT22;37554;50.362;7.568;2023-04-30T04:36:39;17.20;55.50
51476;DHT22;37554;50.362;7.568;2023-04-30T04:39:04;17.20;55.50
51476;DHT22;37554;50.362;7.568;2023-04-30T04:41:32;17.20;55.50
51476;DHT22;37554;50.362;7.568;2023-04-30T04:43:58;17.20;55.50
51476;DHT22;37554;50.362;7.568;2023-04-30T04:46:24;17.20;55.50
51476;DHT22;37554;50.362;7.568;2023-04-30T04:48:51;17.10;55.50
51476;DHT22;37554;50.362;7.568;2023-04-30T04:51:16;17.10;55.50
51476;DHT22;37554;50.362;7.568;2023-04-30T04:53:42;17.10;55.50
51476;DHT22;37554;50.362;7.568;2023-04-30T04:56:07;17.10;55.60
51476;DHT22;37554;50.362;7.568;2023-04-30T04:58:33;17.10;55.50
51476;DHT22;37554;50.362;7.568;2023-04-30T05:00:59;17.10;56.20
51476;DHT22;37554;50.362;7.568;2023-04-30T05:03:27;17.10;55.50
51476;DHT22;37554;50.362;7.568;2023-04-30T05:05:53;17.10;55.50
51476;DHT22;37554;50.362;7.568;2023-04-30T05:08:19;17.10;55.40
51476;DHT22;37554;50.362;7.568;2023-04-30T05:10:45;17.10;55.40
51476;DHT22;37554;50.362;7.568;2023-04-30T05:13:10;17.10;55.40
51476;DHT22;37554;50.362;7.568;2023-04-30T05:15:36;17.20;55.50
51476;DHT22;37554;50.362;7.568;2023-04-30T05:18:02;17.20;55.40
51476;DHT22;37554;50.362;7.568;2023-04-30T05:20:28;17.20;55.40
51476;DHT22;37554;50.362;7.568;2023-04-30T05:22:53;17.20;55.40
51476;DHT22;37554;50.362;7.568;2023-04-30T05:25:19;17.20;55.40
51476;DHT22;37554;50.362;7.568;2023-04-30T05:27:44;17.20;55.50
51476;DHT22;37554;50.362;7.568;2023-04-30T05:30:10;17.20;55.40
51476;DHT22;37554;50.362;7.568;2023-04-30T05:32:36;17.20;55.40
51476;DHT22;37554;50.362;7.568;2023-04-30T05:35:02;17.20;55.40
51476;DHT22;37554;50.362;7.568;2023-04-30T05:37:28;17.20;55.40
51476;DHT22;37554;50.362;7.568;2023-04-30T05:39:53;17.30;55.30
51476;DHT22;37554;50.362;7.568;2023-04-30T05:42:19;17.30;55.30
51476;DHT22;37554;50.362;7.568;2023-04-30T05:44:45;17.30;55.30
51476;DHT22;37554;50.362;7.568;2023-04-30T05:47:11;17.30;55.30
51476;DHT22;37554;50.362;7.568;2023-04-30T05:49:36;17.40;55.30
51476;DHT22;37554;50.362;7.568;2023-04-30T05:52:02;17.40;55.30
51476;DHT22;37554;50.362;7.568;2023-04-30T05:54:29;17.40;55.30
51476;DHT22;37554;50.362;7.568;2023-04-30T05:56:55;17.40;55.20
51476;DHT22;37554;50.362;7.568;2023-04-30T05:59:20;17.50;55.30
51476;DHT22;37554;50.362;7.568;2023-04-30T06:01:46;17.50;55.20
51476;DHT22;37554;50.362;7.568;2023-04-30T06:04:12;17.50;55.20
51476;DHT22;37554;50.362;7.568;2023-04-30T06:06:37;17.50;55.10
51476;DHT22;37554;50.362;7.568;2023-04-30T06:09:03;17.10;55.80
51476;DHT22;37554;50.362;7.568;2023-04-30T06:11:29;16.80;56.90
51476;DHT22;37554;50.362;7.568;2023-04-30T06:13:55;16.60;57.20
51476;DHT22;37554;50.362;7.568;2023-04-30T06:16:21;16.60;57.70
51476;DHT22;37554;50.362;7.568;2023-04-30T06:18:47;16.80;57.90
51476;DHT22;37554;50.362;7.568;2023-04-30T06:21:13;17.00;57.70
51476;DHT22;37554;50.362;7.568;2023-04-30T06:23:38;17.20;57.40
51476;DHT22;37554;50.362;7.568;2023-04-30T06:26:04;17.30;57.20
51476;DHT22;37554;50.362;7.568;2023-04-30T06:28:30;17.50;57.00
51476;DHT22;37554;50.362;7.568;2023-04-30T06:30:55;17.60;56.70
51476;DHT22;37554;50.362;7.568;2023-04-30T06:33:21;17.70;56.40
51476;DHT22;37554;50.362;7.568;2023-04-30T06:35:47;17.80;56.30
51476;DHT22;37554;50.362;7.568;2023-04-30T06:38:15;17.90;56.20
51476;DHT22;37554;50.362;7.568;2023-04-30T06:40:42;18.10;56.00
51476;DHT22;37554;50.362;7.568;2023-04-30T06:43:08;18.20;55.80
51476;DHT22;37554;50.362;7.568;2023-04-30T06:45:34;18.30;55.50
51476;DHT22;37554;50.362;7.568;2023-04-30T06:48:00;18.50;55.30
51476;DHT22;37554;50.362;7.568;2023-04-30T06:50:25;18.60;55.10
51476;DHT22;37554;50.362;7.568;2023-04-30T06:52:51;18.70;55.00
51476;DHT22;37554;50.362;7.568;2023-04-30T06:55:17;18.80;54.60
51476;DHT22;37554;50.362;7.568;2023-04-30T06:57:42;19.00;54.50
51476;DHT22;37554;50.362;7.568;2023-04-30T07:00:08;19.10;54.30
51476;DHT22;37554;50.362;7.568;2023-04-30T07:02:34;19.20;54.10
51476;DHT22;37554;50.362;7.568;2023-04-30T07:05:00;19.40;54.00
51476;DHT22;37554;50.362;7.568;2023-04-30T07:07:26;19.50;53.80
51476;DHT22;37554;50.362;7.568;2023-04-30T07:09:52;19.70;53.60
51476;DHT22;37554;50.362;7.568;2023-04-30T07:12:18;19.80;53.30
51476;DHT22;37554;50.362;7.568;2023-04-30T07:14:44;20.00;53.00
51476;DHT22;37554;50.362;7.568;2023-04-30T07:17:10;20.10;52.80
51476;DHT22;37554;50.362;7.568;2023-04-30T07:19:35;20.20;52.40
51476;DHT22;37554;50.362;7.568;2023-04-30T07:22:01;20.40;52.20
51476;DHT22;37554;50.362;7.568;2023-04-30T07:24:27;20.50;51.80
51476;DHT22;37554;50.362;7.568;2023-04-30T07:26:53;20.70;51.60
51476;DHT22;37554;50.362;7.568;2023-04-30T07:29:18;20.80;51.30
51476;DHT22;37554;50.362;7.568;2023-04-30T07:31:44;21.00;51.10
51476;DHT22;37554;50.362;7.568;2023-04-30T07:34:09;21.20;50.80
51476;DHT22;37554;50.362;7.568;2023-04-30T07:36:35;21.30;50.60
51476;DHT22;37554;50.362;7.568;2023-04-30T07:39:03;21.50;50.30
51476;DHT22;37554;50.362;7.568;2023-04-30T07:41:29;21.70;50.10
51476;DHT22;37554;50.362;7.568;2023-04-30T07:43:55;21.90;50.50
51476;DHT22;37554;50.362;7.568;2023-04-30T07:46:22;22.10;49.70
51476;DHT22;37554;50.362;7.568;2023-04-30T07:48:49;22.20;49.40
51476;DHT22;37554;50.362;7.568;2023-04-30T07:51:15;22.40;49.10
51476;DHT22;37554;50.362;7.568;2023-04-30T07:53:40;22.60;48.80
51476;DHT22;37554;50.362;7.568;2023-04-30T07:56:06;22.90;48.60
51476;DHT22;37554;50.362;7.568;2023-04-30T07:58:32;23.00;48.20
51476;DHT22;37554;50.362;7.568;2023-04-30T08:00:58;23.20;48.00
51476;DHT22;37554;50.362;7.568;2023-04-30T08:03:24;23.40;47.70
51476;DHT22;37554;50.362;7.568;2023-04-30T08:05:50;23.60;47.30
51476;DHT22;37554;50.362;7.568;2023-04-30T08:08:16;23.90;47.00
51476;DHT22;37554;50.362;7.568;2023-04-30T08:10:42;24.10;46.70
51476;DHT22;37554;50.362;7.568;2023-04-30T08:13:07;24.30;46.40
51476;DHT22;37554;50.362;7.568;2023-04-30T08:15:33;24.50;46.10
51476;DHT22;37554;50.362;7.568;2023-04-30T08:17:59;24.70;45.80
51476;DHT22;37554;50.362;7.568;2023-04-30T08:20:24;25.00;45.40
51476;DHT22;37554;50.362;7.568;2023-04-30T08:22:50;25.20;45.20
51476;DHT22;37554;50.362;7.568;2023-04-30T08:25:16;25.40;44.80
51476;DHT22;37554;50.362;7.568;2023-04-30T08:27:42;25.60;44.60
51476;DHT22;37554;50.362;7.568;2023-04-30T08:30:08;25.90;44.40
51476;DHT22;37554;50.362;7.568;2023-04-30T08:32:35;26.10;44.10
51476;DHT22;37554;50.362;7.568;2023-04-30T08:35:04;26.30;43.80
51476;DHT22;37554;50.362;7.568;2023-04-30T08:37:30;26.50;43.60
51476;DHT22;37554;50.362;7.568;2023-04-30T08:39:56;26.80;43.50
51476;DHT22;37554;50.362;7.568;2023-04-30T08:42:25;27.00;43.30
51476;DHT22;37554;50.362;7.568;2023-04-30T08:44:53;27.20;43.00
51476;DHT22;37554;50.362;7.568;2023-04-30T08:47:19;27.50;42.90
51476;DHT22;37554;50.362;7.568;2023-04-30T08:49:46;27.70;42.20
51476;DHT22;37554;50.362;7.568;2023-04-30T08:52:12;26.90;39.10
51476;DHT22;37554;50.362;7.568;2023-04-30T08:54:38;26.10;38.50
51476;DHT22;37554;50.362;7.568;2023-04-30T08:57:04;25.40;38.30
51476;DHT22;37554;50.362;7.568;2023-04-30T08:59:30;24.90;38.50
51476;DHT22;37554;50.362;7.568;2023-04-30T09:01:56;24.60;38.40
51476;DHT22;37554;50.362;7.568;2023-04-30T09:04:22;24.40;38.70
51476;DHT22;37554;50.362;7.568;2023-04-30T09:06:47;24.30;38.70
51476;DHT22;37554;50.362;7.568;2023-04-30T09:09:15;24.10;38.50
51476;DHT22;37554;50.362;7.568;2023-04-30T09:11:41;24.00;37.80
51476;DHT22;37554;50.362;7.568;2023-04-30T09:14:07;24.10;38.20
51476;DHT22;37554;50.362;7.568;2023-04-30T09:16:46;24.20;38.00
51476;DHT22;37554;50.362;7.568;2023-04-30T09:19:25;24.30;38.50
51476;DHT22;37554;50.362;7.568;2023-04-30T09:21:51;24.20;37.00
51476;DHT22;37554;50.362;7.568;2023-04-30T09:24:18;24.20;37.50
51476;DHT22;37554;50.362;7.568;2023-04-30T09:26:44;24.20;37.60
51476;DHT22;37554;50.362;7.568;2023-04-30T09:29:12;24.30;37.40
51476;DHT22;37554;50.362;7.568;2023-04-30T09:31:40;24.40;36.60
51476;DHT22;37554;50.362;7.568;2023-04-30T09:34:06;24.50;37.20
51476;DHT22;37554;50.362;7.568;2023-04-30T09:36:32;24.50;36.60
51476;DHT22;37554;50.362;7.568;2023-04-30T09:39:09;24.50;37.10
51476;DHT22;37554;50.362;7.568;2023-04-30T09:41:40;24.60;35.60
51476;DHT22;37554;50.362;7.568;2023-04-30T09:44:06;24.50;36.30
51476;DHT22;37554;50.362;7.568;2023-04-30T09:46:33;24.60;35.40
51476;DHT22;37554;50.362;7.568;2023-04-30T09:49:04;24.60;35.50
51476;DHT22;37554;50.362;7.568;2023-04-30T09:51:30;24.70;35.70
51476;DHT22;37554;50.362;7.568;2023-04-30T09:53:56;24.80;35.70
51476;DHT22;37554;50.362;7.568;2023-04-30T09:56:23;24.80;35.50
51476;DHT22;37554;50.362;7.568;2023-04-30T09:58:52;24.80;35.80
51476;DHT22;37554;50.362;7.568;2023-04-30T10:01:19;24.90;35.90
51476;DHT22;37554;50.362;7.568;2023-04-30T10:03:46;25.00;35.80
51476;DHT22;37554;50.362;7.568;2023-04-30T10:06:13;25.10;36.40
51476;DHT22;37554;50.362;7.568;2023-04-30T10:08:42;25.20;35.70
51476;DHT22;37554;50.362;7.568;2023-04-30T10:11:09;25.20;35.70
51476;DHT22;37554;50.362;7.568;2023-04-30T10:19:17;25.60;34.60
51476;DHT22;37554;50.362;7.568;2023-04-30T10:21:44;25.60;34.40
51476;DHT22;37554;50.362;7.568;2023-04-30T10:24:13;25.50;34.90
51476;DHT22;37554;50.362;7.568;2023-04-30T10:26:40;25.50;34.20
51476;DHT22;37554;50.362;7.568;2023-04-30T10:29:06;25.70;34.60
51476;DHT22;37554;50.362;7.568;2023-04-30T10:31:33;25.80;34.40
51476;DHT22;37554;50.362;7.568;2023-04-30T10:39:00;26.50;33.30
51476;DHT22;37554;50.362;7.568;2023-04-30T10:41:26;26.80;32.40
51476;DHT22;37554;50.362;7.568;2023-04-30T10:43:57;27.10;32.00
51476;DHT22;37554;50.362;7.568;2023-04-30T10:46:26;27.50;31.20
51476;DHT22;37554;50.362;7.568;2023-04-30T10:48:53;28.00;32.00
51476;DHT22;37554;50.362;7.568;2023-04-30T10:51:20;28.60;31.80
51476;DHT22;37554;50.362;7.568;2023-04-30T10:53:49;29.20;31.00
51476;DHT22;37554;50.362;7.568;2023-04-30T10:56:31;29.80;30.20
51476;DHT22;37554;50.362;7.568;2023-04-30T10:59:00;30.50;28.80
51476;DHT22;37554;50.362;7.568;2023-04-30T11:01:29;30.90;29.30
51476;DHT22;37554;50.362;7.568;2023-04-30T11:04:08;31.40;29.10
51476;DHT22;37554;50.362;7.568;2023-04-30T11:09:19;31.70;27.80
51476;DHT22;37554;50.362;7.568;2023-04-30T11:11:45;32.00;28.90
51476;DHT22;37554;50.362;7.568;2023-04-30T11:14:13;32.20;28.80
51476;DHT22;37554;50.362;7.568;2023-04-30T11:16:48;32.40;28.60
51476;DHT22;37554;50.362;7.568;2023-04-30T11:19:14;32.60;28.40
51476;DHT22;37554;50.362;7.568;2023-04-30T11:24:51;32.50;27.60
51476;DHT22;37554;50.362;7.568;2023-04-30T11:27:25;32.20;27.90
51476;DHT22;37554;50.362;7.568;2023-04-30T11:29:52;31.90;28.50
51476;DHT22;37554;50.362;7.568;2023-04-30T11:32:19;31.30;28.70
51476;DHT22;37554;50.362;7.568;2023-04-30T11:34:45;30.90;29.00
51476;DHT22;37554;50.362;7.568;2023-04-30T11:37:15;30.40;29.30
51476;DHT22;37554;50.362;7.568;2023-04-30T11:39:41;30.20;29.70
51476;DHT22;37554;50.362;7.568;2023-04-30T11:42:08;29.80;29.70
51476;DHT22;37554;50.362;7.568;2023-04-30T11:44:33;29.60;29.80
51476;DHT22;37554;50.362;7.568;2023-04-30T11:47:00;29.30;30.00
51476;DHT22;37554;50.362;7.568;2023-04-30T11:49:26;29.20;29.80
51476;DHT22;37554;50.362;7.568;2023-04-30T11:51:52;29.00;31.10
51476;DHT22;37554;50.362;7.568;2023-04-30T11:54:18;29.00;31.20
51476;DHT22;37554;50.362;7.568;2023-04-30T11:56:47;29.00;30.80
51476;DHT22;37554;50.362;7.568;2023-04-30T11:59:14;28.90;30.50
51476;DHT22;37554;50.362;7.568;2023-04-30T12:01:40;28.80;30.10
51476;DHT22;37554;50.362;7.568;2023-04-30T12:04:07;28.80;30.70
51476;DHT22;37554;50.362;7.568;2023-04-30T12:06:35;28.90;30.90
51476;DHT22;37554;50.362;7.568;2023-04-30T12:09:03;28.90;30.50
51476;DHT22;37554;50.362;7.568;2023-04-30T12:11:34;28.90;31.30
51476;DHT22;37554;50.362;7.568;2023-04-30T12:14:00;28.80;30.80
51476;DHT22;37554;50.362;7.568;2023-04-30T12:16:42;28.30;30.60
51476;DHT22;37554;50.362;7.568;2023-04-30T12:19:14;27.70;30.10
51476;DHT22;37554;50.362;7.568;2023-04-30T12:21:41;27.50;31.10
51476;DHT22;37554;50.362;7.568;2023-04-30T12:24:11;27.80;31.70
51476;DHT22;37554;50.362;7.568;2023-04-30T12:26:38;28.10;31.00
51476;DHT22;37554;50.362;7.568;2023-04-30T12:29:24;28.20;32.00
51476;DHT22;37554;50.362;7.568;2023-04-30T12:31:50;28.30;32.40
51476;DHT22;37554;50.362;7.568;2023-04-30T12:34:16;28.40;31.50
51476;DHT22;37554;50.362;7.568;2023-04-30T12:36:43;28.00;31.40
51476;DHT22;37554;50.362;7.568;2023-04-30T12:39:13;27.60;31.90
51476;DHT22;37554;50.362;7.568;2023-04-30T12:41:45;27.60;32.00
51476;DHT22;37554;50.362;7.568;2023-04-30T12:44:21;27.60;32.30
51476;DHT22;37554;50.362;7.568;2023-04-30T12:46:49;27.90;32.30
51476;DHT22;37554;50.362;7.568;2023-04-30T12:49:42;28.00;32.10
51476;DHT22;37554;50.362;7.568;2023-04-30T12:52:11;28.00;32.20
51476;DHT22;37554;50.362;7.568;2023-04-30T12:54:38;28.10;32.40
51476;DHT22;37554;50.362;7.568;2023-04-30T13:02:17;28.00;30.90
51476;DHT22;37554;50.362;7.568;2023-04-30T13:04:43;27.90;32.10
51476;DHT22;37554;50.362;7.568;2023-04-30T13:07:09;28.00;32.10
51476;DHT22;37554;50.362;7.568;2023-04-30T13:09:36;28.20;32.00
51476;DHT22;37554;50.362;7.568;2023-04-30T13:12:03;28.20;32.30
51476;DHT22;37554;50.362;7.568;2023-04-30T13:14:32;28.40;31.70
51476;DHT22;37554;50.362;7.568;2023-04-30T13:17:00;28.40;31.30
51476;DHT22;37554;50.362;7.568;2023-04-30T13:19:29;28.70;31.40
51476;DHT22;37554;50.362;7.568;2023-04-30T13:21:55;29.30;31.50
51476;DHT22;37554;50.362;7.568;2023-04-30T13:24:21;30.00;31.40
51476;DHT22;37554;50.362;7.568;2023-04-30T13:26:46;30.50;30.70
51476;DHT22;37554;50.362;7.568;2023-04-30T13:29:12;31.00;30.40
51476;DHT22;37554;50.362;7.568;2023-04-30T13:31:38;31.50;30.90
51476;DHT22;37554;50.362;7.568;2023-04-30T13:34:03;32.00;30.00
51476;DHT22;37554;50.362;7.568;2023-04-30T13:36:29;32.50;30.60
51476;DHT22;37554;50.362;7.568;2023-04-30T13:38:55;32.90;29.80
51476;DHT22;37554;50.362;7.568;2023-04-30T13:41:20;33.30;29.70
51476;DHT22;37554;50.362;7.568;2023-04-30T13:43:47;33.50;29.50
51476;DHT22;37554;50.362;7.568;2023-04-30T13:46:13;33.80;29.40
51476;DHT22;37554;50.362;7.568;2023-04-30T13:48:39;34.20;29.60
51476;DHT22;37554;50.362;7.568;2023-04-30T13:51:05;34.40;29.50
51476;DHT22;37554;50.362;7.568;2023-04-30T13:53:31;34.70;29.30
51476;DHT22;37554;50.362;7.568;2023-04-30T13:55:58;34.90;29.30
51476;DHT22;37554;50.362;7.568;2023-04-30T13:58:24;35.00;29.10
51476;DHT22;37554;50.362;7.568;2023-04-30T14:00:50;35.20;29.30
51476;DHT22;37554;50.362;7.568;2023-04-30T14:03:17;35.40;29.20
51476;DHT22;37554;50.362;7.568;2023-04-30T14:05:43;35.50;29.00
51476;DHT22;37554;50.362;7.568;2023-04-30T14:08:09;35.60;29.10
51476;DHT22;37554;50.362;7.568;2023-04-30T14:10:34;35.80;29.00
51476;DHT22;37554;50.362;7.568;2023-04-30T14:13:00;35.90;28.70
51476;DHT22;37554;50.362;7.568;2023-04-30T14:15:26;36.10;28.50
51476;DHT22;37554;50.362;7.568;2023-04-30T14:17:54;36.30;28.30
51476;DHT22;37554;50.362;7.568;2023-04-30T14:20:20;36.40;28.30
51476;DHT22;37554;50.362;7.568;2023-04-30T14:22:46;36.40;28.50
51476;DHT22;37554;50.362;7.568;2023-04-30T14:25:11;36.50;28.40
51476;DHT22;37554;50.362;7.568;2023-04-30T14:27:38;36.60;28.60
51476;DHT22;37554;50.362;7.568;2023-04-30T14:30:04;36.50;28.70
51476;DHT22;37554;50.362;7.568;2023-04-30T14:32:30;36.30;28.70
51476;DHT22;37554;50.362;7.568;2023-04-30T14:34:56;36.10;28.70
51476;DHT22;37554;50.362;7.568;2023-04-30T14:37:21;35.90;28.70
51476;DHT22;37554;50.362;7.568;2023-04-30T14:39:47;35.90;28.70
51476;DHT22;37554;50.362;7.568;2023-04-30T14:42:13;35.90;28.50
51476;DHT22;37554;50.362;7.568;2023-04-30T14:44:39;36.00;28.80
51476;DHT22;37554;50.362;7.568;2023-04-30T14:47:05;36.00;28.80
51476;DHT22;37554;50.362;7.568;2023-04-30T14:49:30;36.00;28.90
51476;DHT22;37554;50.362;7.568;2023-04-30T14:51:56;36.00;29.50
51476;DHT22;37554;50.362;7.568;2023-04-30T14:54:22;36.00;29.00
51476;DHT22;37554;50.362;7.568;2023-04-30T14:56:48;35.90;29.10
51476;DHT22;37554;50.362;7.568;2023-04-30T14:59:14;35.80;29.10
51476;DHT22;37554;50.362;7.568;2023-04-30T15:01:40;35.60;29.00
51476;DHT22;37554;50.362;7.568;2023-04-30T15:04:06;35.40;28.90
51476;DHT22;37554;50.362;7.568;2023-04-30T15:06:32;35.20;29.20
51476;DHT22;37554;50.362;7.568;2023-04-30T15:08:58;35.10;29.40
51476;DHT22;37554;50.362;7.568;2023-04-30T15:11:24;34.90;29.50
51476;DHT22;37554;50.362;7.568;2023-04-30T15:13:49;34.80;29.60
51476;DHT22;37554;50.362;7.568;2023-04-30T15:16:15;34.60;29.30
51476;DHT22;37554;50.362;7.568;2023-04-30T15:18:42;34.50;29.40
51476;DHT22;37554;50.362;7.568;2023-04-30T15:21:08;34.30;29.50
51476;DHT22;37554;50.362;7.568;2023-04-30T15:23:33;34.20;29.50
51476;DHT22;37554;50.362;7.568;2023-04-30T15:26:00;34.10;29.60
51476;DHT22;37554;50.362;7.568;2023-04-30T15:28:26;33.30;29.00
51476;DHT22;37554;50.362;7.568;2023-04-30T15:30:52;32.40;28.50
51476;DHT22;37554;50.362;7.568;2023-04-30T15:33:17;31.50;28.90
51476;DHT22;37554;50.362;7.568;2023-04-30T15:35:48;30.80;29.20
51476;DHT22;37554;50.362;7.568;2023-04-30T15:38:14;30.20;29.50
51476;DHT22;37554;50.362;7.568;2023-04-30T15:40:40;29.80;29.40
51476;DHT22;37554;50.362;7.568;2023-04-30T15:43:05;29.40;29.50
51476;DHT22;37554;50.362;7.568;2023-04-30T15:45:32;29.20;29.90
51476;DHT22;37554;50.362;7.568;2023-04-30T15:47:58;28.90;29.80
51476;DHT22;37554;50.362;7.568;2023-04-30T15:50:26;28.70;30.00
51476;DHT22;37554;50.362;7.568;2023-04-30T15:52:51;28.40;30.30
51476;DHT22;37554;50.362;7.568;2023-04-30T15:55:17;28.30;30.70
51476;DHT22;37554;50.362;7.568;2023-04-30T15:57:43;28.20;30.20
51476;DHT22;37554;50.362;7.568;2023-04-30T16:00:09;28.10;30.50